Time;durP1;ratioP1;P1;durP2;ratioP2;P2;SDS_P1;SDS_P2;PMS_P1;PMS_P2;Temp;Humidity;BMP_temperature;BMP_pressure;BME280_temperature;BME280_humidity;BME280_pressure;Samples;Min_cycle;Max_cycle;Signal;HPM_P1;HPM_P2
2022/06/01 00:01:23;;;;;;;13.73;11.02;;;;;;;9.43;82.21;101260.56;4994508;28;20058;-70
2022/06/01 00:03:49;;;;;;;15.18;11.18;;;;;;;9.40;82.53;101266.16;4989015;28;20061;-70
2022/06/01 00:06:14;;;;;;;14.45;10.52;;;;;;;9.40;82.33;101260.75;5007706;28;20034;-69
2022/06/01 00:08:40;;;;;;;16.38;12.70;;;;;;;9.39;82.89;101261.72;5002681;28;20176;-70
2022/06/01 00:11:06;;;;;;;17.25;12.35;;;;;;;9.37;82.48;101261.81;5007042;28;20056;-70
2022/06/01 00:13:32;;;;;;;16.63;13.07;;;;;;;9.37;82.18;101261.81;5004510;28;20042;-70
2022/06/01 00:15:57;;;;;;;16.15;11.82;;;;;;;9.37;82.50;101266.34;4973357;28;20064;-70
2022/06/01 00:18:23;;;;;;;15.98;11.52;;;;;;;9.37;82.32;101266.34;5006145;28;20034;-70
2022/06/01 00:20:50;;;;;;;19.10;12.70;;;;;;;9.35;83.18;101271.00;5007132;28;20033;-70
2022/06/01 00:23:17;;;;;;;15.98;12.48;;;;;;;9.32;82.38;101269.34;4988000;28;20737;-68
2022/06/01 00:25:42;;;;;;;15.43;12.57;;;;;;;9.32;82.62;101263.91;5007591;28;20045;-70
2022/06/01 00:28:08;;;;;;;16.42;12.50;;;;;;;9.30;82.87;101268.56;5004521;28;20038;-70
2022/06/01 00:30:34;;;;;;;17.23;13.32;;;;;;;9.30;83.09;101262.28;5000141;28;20038;-70
2022/06/01 00:33:00;;;;;;;19.35;14.35;;;;;;;9.33;83.66;101265.69;5004330;28;20548;-71
2022/06/01 00:35:26;;;;;;;20.65;15.43;;;;;;;9.35;83.85;101266.44;5009745;28;20041;-71
2022/06/01 00:37:51;;;;;;;20.13;14.90;;;;;;;9.35;84.13;101261.03;5006025;28;20061;-70
2022/06/01 00:40:19;;;;;;;18.15;14.52;;;;;;;9.39;83.51;101265.31;5007848;28;20500;-70
2022/06/01 00:42:48;;;;;;;19.33;14.77;;;;;;;9.41;83.79;101274.22;5011184;28;20389;-71
2022/06/01 00:45:18;;;;;;;18.77;14.95;;;;;;;9.42;84.03;101267.84;4986526;28;20022;-70
2022/06/01 00:47:43;;;;;;;19.27;14.90;;;;;;;9.45;83.46;101272.19;5000685;28;20034;-70
2022/06/01 00:50:30;;;;;;;21.20;16.00;;;;;;;9.47;84.45;101269.41;4998855;28;20088;-70
2022/06/01 00:53:30;;;;;;;18.92;14.45;;;;;;;9.49;83.56;101264.75;4992504;28;20110;-71
2022/06/01 00:56:01;;;;;;;22.75;15.00;;;;;;;9.48;84.46;101268.44;5006421;28;20069;-70
2022/06/01 00:58:35;;;;;;;22.15;15.18;;;;;;;9.50;83.99;101269.19;4991580;28;20127;-70
2022/06/01 01:01:01;;;;;;;18.35;14.55;;;;;;;9.48;83.78;101266.59;4994589;28;20033;-69
2022/06/01 01:03:33;;;;;;;18.13;13.70;;;;;;;9.48;83.10;101268.44;5009351;28;20096;-70
2022/06/01 01:06:09;;;;;;;20.48;14.50;;;;;;;9.47;83.95;101263.97;5006272;28;20044;-70
2022/06/01 01:08:35;;;;;;;19.17;14.50;;;;;;;9.44;84.08;101262.31;4991312;28;20045;-70
2022/06/01 01:11:00;;;;;;;25.42;16.05;;;;;;;9.41;83.60;101271.50;5007273;28;20188;-70
2022/06/01 01:13:25;;;;;;;21.38;15.95;;;;;;;9.38;84.54;101265.41;5003333;28;20038;-70
2022/06/01 01:15:54;;;;;;;21.67;15.15;;;;;;;9.37;84.34;101260.91;4996377;28;20050;-70
2022/06/01 01:18:25;;;;;;;23.58;16.88;;;;;;;9.37;84.54;101263.63;5009274;28;20377;-71
2022/06/01 01:21:01;;;;;;;19.45;15.20;;;;;;;9.38;83.89;101255.41;5005113;28;20036;-70
2022/06/01 01:23:40;;;;;;;23.33;15.55;;;;;;;9.44;83.96;101260.47;4995994;28;20068;-70
2022/06/01 01:26:06;;;;;;;18.88;14.60;;;;;;;9.45;83.85;101259.47;5009422;28;20469;-70
2022/06/01 01:28:32;;;;;;;22.98;16.15;;;;;;;9.47;84.93;101253.97;5000753;28;20372;-71
2022/06/01 01:31:01;;;;;;;22.08;15.68;;;;;;;9.50;84.55;101255.63;4993268;28;20042;-71
2022/06/01 01:33:29;;;;;;;22.10;16.17;;;;;;;9.48;85.36;101250.28;5008203;28;20063;-70
2022/06/01 01:36:01;;;;;;;24.70;15.75;;;;;;;9.48;84.66;101255.72;5009555;28;20025;-71
2022/06/01 01:38:33;;;;;;;21.38;14.57;;;;;;;9.49;84.57;101246.59;4990469;28;20485;-70
2022/06/01 01:41:11;;;;;;;23.15;16.40;;;;;;;9.49;85.48;101254.75;4991595;28;20052;-70
2022/06/01 01:43:47;;;;;;;19.35;15.13;;;;;;;9.50;85.01;101247.47;5007970;28;20444;-70
2022/06/01 01:46:15;;;;;;;21.83;15.55;;;;;;;9.48;84.83;101254.84;4994908;28;20034;-70
2022/06/01 01:48:41;;;;;;;23.80;16.00;;;;;;;9.44;84.59;101255.03;4989815;28;20103;-70
2022/06/01 01:51:06;;;;;;;24.58;16.73;;;;;;;9.42;84.80;101262.41;5002114;28;20069;-68
2022/06/01 01:53:33;;;;;;;25.23;18.33;;;;;;;9.42;85.41;101259.69;4999140;28;20066;-71
2022/06/01 01:56:12;;;;;;;28.85;21.42;;;;;;;9.42;86.14;101259.69;5002728;28;20437;-70
2022/06/01 01:59:16;;;;;;;25.02;18.30;;;;;;;9.45;85.37;101262.19;4987621;28;20144;-71
2022/06/01 02:02:06;;;;;;;29.50;20.08;;;;;;;9.50;85.73;101271.91;4938477;28;20053;-69
2022/06/01 02:07:37;;;;;;;29.08;20.25;;;;;;;9.50;85.96;101263.75;5007270;28;20033;-69
2022/06/01 02:12:47;;;;;;;27.85;18.92;;;;;;;9.49;85.76;101265.59;5008843;28;20819;-70
2022/06/01 02:15:26;;;;;;;28.25;20.52;;;;;;;9.50;85.52;101263.75;4995853;28;20030;-70
2022/06/01 02:17:57;;;;;;;29.27;20.55;;;;;;;9.45;86.43;101255.91;4995305;28;20037;-70
2022/06/01 02:20:23;;;;;;;26.15;19.10;;;;;;;9.40;85.86;101258.03;5008069;28;20048;-71
2022/06/01 02:22:49;;;;;;;26.20;18.15;;;;;;;9.39;85.53;101265.31;4994534;28;20034;-70
2022/06/01 02:25:14;;;;;;;28.02;19.40;;;;;;;9.38;85.53;101262.69;5000324;28;20472;-70
2022/06/01 02:27:42;;;;;;;30.75;19.77;;;;;;;9.39;85.32;101261.72;4994330;28;20105;-70
2022/06/01 02:30:12;;;;;;;31.73;19.80;;;;;;;9.40;85.67;101271.59;4971454;28;20482;-69
2022/06/01 02:32:40;;;;;;;29.70;20.55;;;;;;;9.38;85.62;101266.28;5004134;28;20033;-70
2022/06/01 02:35:08;;;;;;;31.88;21.05;;;;;;;9.38;85.94;101265.41;5007665;28;20116;-70
2022/06/01 02:37:39;;;;;;;29.23;20.50;;;;;;;9.36;86.00;101265.47;4994257;28;20066;-70
2022/06/01 02:40:08;;;;;;;33.05;22.02;;;;;;;9.33;85.70;101265.69;4990565;28;20112;-70
2022/06/01 02:42:34;;;;;;;30.88;21.85;;;;;;;9.28;85.60;101262.38;4996030;28;20042;-70
2022/06/01 02:45:07;;;;;;;30.63;21.30;;;;;;;9.25;85.41;101256.25;5000199;28;20034;-70
2022/06/01 02:47:37;;;;;;;28.38;19.48;;;;;;;9.19;85.76;101262.94;4990563;28;20370;-70
2022/06/01 02:50:04;;;;;;;32.53;21.65;;;;;;;9.13;86.31;101258.72;4986049;28;20037;-69
2022/06/01 02:52:30;;;;;;;36.22;21.92;;;;;;;9.06;85.86;101254.63;4998378;28;20049;-69
2022/06/01 02:54:55;;;;;;;29.52;20.77;;;;;;;9.00;85.64;101263.16;5005257;28;20405;-69
2022/06/01 02:57:21;;;;;;;29.50;19.85;;;;;;;8.97;85.78;101257.91;5002154;28;20088;-69
2022/06/01 02:59:47;;;;;;;29.88;20.33;;;;;;;8.90;85.72;101261.91;4979866;28;20113;-69
2022/06/01 03:02:13;;;;;;;31.00;21.80;;;;;;;8.86;85.95;101257.63;4992156;28;20516;-70
2022/06/01 03:04:41;;;;;;;31.98;21.48;;;;;;;8.81;85.92;101247.09;5006999;28;20030;-69
2022/06/01 03:07:06;;;;;;;29.05;19.90;;;;;;;8.78;85.91;101255.38;5007740;28;20152;-70
2022/06/01 03:09:32;;;;;;;28.92;19.50;;;;;;;8.74;85.89;101253.81;4997440;28;20073;-69
2022/06/01 03:11:58;;;;;;;28.30;19.98;;;;;;;8.70;86.38;101254.94;5003003;28;20494;-69
2022/06/01 03:14:24;;;;;;;31.02;19.90;;;;;;;8.68;85.70;101259.59;4999307;28;20449;-69
2022/06/01 03:16:49;;;;;;;27.02;18.40;;;;;;;8.63;85.83;101259.00;4998800;28;20076;-69
2022/06/01 03:19:15;;;;;;;32.33;20.60;;;;;;;8.56;86.64;101254.88;4989820;28;20036;-70
2022/06/01 03:21:41;;;;;;;27.95;19.38;;;;;;;8.53;86.00;101263.19;4973729;28;20073;-70
2022/06/01 03:24:08;;;;;;;29.85;19.85;;;;;;;8.46;86.48;101257.25;4987222;28;20458;-69
2022/06/01 03:26:33;;;;;;;30.40;19.33;;;;;;;8.42;86.68;101261.09;5007416;28;20037;-70
2022/06/01 03:28:59;;;;;;;29.02;19.85;;;;;;;8.38;86.68;101262.22;5004576;28;20122;-69
2022/06/01 03:31:24;;;;;;;27.90;19.05;;;;;;;8.35;85.88;101263.25;4994522;28;20458;-69
2022/06/01 03:33:50;;;;;;;30.98;18.63;;;;;;;8.33;86.17;101257.03;5006557;28;20065;-69
2022/06/01 03:36:15;;;;;;;31.50;19.20;;;;;;;8.30;86.51;101272.56;4990074;28;20276;-69
2022/06/01 03:38:41;;;;;;;26.98;19.38;;;;;;;8.27;86.73;101268.22;4987986;28;20409;-69
2022/06/01 03:41:07;;;;;;;32.60;19.23;;;;;;;8.26;86.73;101262.91;5007172;28;20108;-70
2022/06/01 03:45:55;;;;;;;31.20;18.73;;;;;;;8.25;87.06;101266.53;5006686;28;20116;-69
2022/06/01 03:46:18;;;;;;;30.27;18.70;;;;;;;8.24;87.23;101271.09;4991805;28;20030;-70
2022/06/01 03:48:43;;;;;;;26.65;18.30;;;;;;;8.25;87.20;101264.69;4989512;28;20053;-69
2022/06/01 03:51:09;;;;;;;29.85;18.80;;;;;;;8.26;86.67;101279.16;5007114;28;20393;-69
2022/06/01 03:53:34;;;;;;;27.73;17.80;;;;;;;8.24;87.30;101271.09;4988667;28;20441;-70
2022/06/01 03:56:00;;;;;;;30.52;18.33;;;;;;;8.28;87.40;101269.09;4997132;28;20038;-70
2022/06/01 03:58:25;;;;;;;30.60;17.10;;;;;;;8.29;87.10;101271.72;4986891;28;20045;-69
2022/06/01 04:00:51;;;;;;;25.00;17.33;;;;;;;8.32;86.95;101271.53;4993139;28;20026;-69
2022/06/01 04:03:17;;;;;;;29.92;17.98;;;;;;;8.34;87.02;101271.44;4983344;28;20076;-69
2022/06/01 04:05:43;;;;;;;26.02;17.10;;;;;;;8.33;86.53;101275.13;5011541;28;20033;-70
2022/06/01 04:08:09;;;;;;;24.27;16.55;;;;;;;8.31;86.84;101274.34;5002401;28;20045;-70
2022/06/01 04:10:38;;;;;;;26.65;17.48;;;;;;;8.35;86.96;101281.34;5007198;28;20068;-70
2022/06/01 04:13:04;;;;;;;25.58;17.13;;;;;;;8.36;86.87;101278.59;5002436;28;20030;-70
2022/06/01 04:15:29;;;;;;;23.88;16.05;;;;;;;8.39;86.43;101282.94;5000440;28;20049;-71
2022/06/01 04:17:55;;;;;;;23.73;16.52;;;;;;;8.39;86.55;101285.66;5010973;28;20034;-70
2022/06/01 04:20:21;;;;;;;26.90;16.48;;;;;;;8.39;85.89;101285.66;5010431;28;20038;-70
2022/06/01 04:22:47;;;;;;;24.98;15.57;;;;;;;8.40;85.81;101284.72;4997936;28;20034;-70
2022/06/01 04:25:17;;;;;;;24.92;16.35;;;;;;;8.41;86.15;101286.47;4984558;28;20083;-71
2022/06/01 04:27:43;;;;;;;26.95;16.67;;;;;;;8.41;86.01;101284.63;5011106;28;20033;-71
2022/06/01 04:30:12;;;;;;;23.15;15.30;;;;;;;8.42;86.45;101285.50;4986625;28;20133;-69
2022/06/01 04:32:38;;;;;;;26.20;15.82;;;;;;;8.44;85.68;101286.28;5006545;28;20080;-71
2022/06/01 04:35:06;;;;;;;24.40;15.48;;;;;;;8.45;86.36;101279.91;5009866;28;20037;-70
2022/06/01 04:37:31;;;;;;;23.58;15.23;;;;;;;8.45;86.38;101282.63;4998774;28;20049;-70
2022/06/01 04:39:57;;;;;;;26.15;15.50;;;;;;;8.51;86.12;101284.09;5010467;28;20338;-70
2022/06/01 04:42:23;;;;;;;32.42;15.10;;;;;;;8.56;86.10;101285.56;5010533;28;20033;-70
2022/06/01 04:44:48;;;;;;;23.45;15.15;;;;;;;8.62;86.36;101284.34;5004351;28;20050;-70
2022/06/01 04:47:13;;;;;;;28.75;15.20;;;;;;;8.60;86.39;101283.56;5003238;28;20441;-70
2022/06/01 04:49:39;;;;;;;24.85;16.80;;;;;;;8.60;87.11;101289.88;5008406;28;20424;-69
2022/06/01 04:52:05;;;;;;;23.83;16.02;;;;;;;8.62;86.72;101295.19;5010138;28;20469;-71
2022/06/01 04:54:31;;;;;;;26.98;14.90;;;;;;;8.65;86.84;101298.63;5004280;28;20026;-69
2022/06/01 04:56:56;;;;;;;19.63;14.25;;;;;;;8.69;86.61;101289.34;5009889;28;20045;-71
2022/06/01 04:59:22;;;;;;;23.02;14.52;;;;;;;8.72;86.51;101293.72;5008908;28;20053;-69
2022/06/01 05:01:48;;;;;;;25.90;15.52;;;;;;;8.75;86.10;101290.81;4989860;28;20153;-69
2022/06/01 05:04:14;;;;;;;22.90;13.93;;;;;;;8.80;86.45;101298.69;5005565;28;20114;-71
2022/06/01 05:06:39;;;;;;;26.40;14.80;;;;;;;8.82;86.80;101296.78;5002254;28;20040;-70
2022/06/01 05:09:05;;;;;;;24.55;15.80;;;;;;;8.83;87.20;101293.97;4991360;28;20018;-71
2022/06/01 05:11:30;;;;;;;28.65;14.60;;;;;;;8.85;87.69;101289.31;5009679;28;20552;-70
2022/06/01 05:13:56;;;;;;;22.48;14.65;;;;;;;8.85;87.40;101288.44;4990544;28;20037;-70
2022/06/01 05:16:22;;;;;;;20.90;14.63;;;;;;;8.88;87.44;101291.00;5004304;28;20115;-72
2022/06/01 05:18:47;;;;;;;22.63;14.02;;;;;;;8.88;87.06;101293.72;5006341;28;20487;-71
2022/06/01 05:21:12;;;;;;;23.52;13.70;;;;;;;8.92;88.06;101287.16;4975146;28;20042;-71
2022/06/01 05:23:38;;;;;;;22.35;13.90;;;;;;;8.93;87.90;101291.59;4999476;28;20039;-71
2022/06/01 05:26:04;;;;;;;21.60;14.43;;;;;;;8.96;87.51;101287.84;5007005;28;20374;-72
2022/06/01 05:28:31;;;;;;;26.25;14.25;;;;;;;8.99;87.48;101293.06;5008515;28;20748;-72
2022/06/01 05:30:58;;;;;;;22.08;13.32;;;;;;;9.01;87.19;101289.31;4997440;28;20038;-72
2022/06/01 05:33:24;;;;;;;19.45;13.77;;;;;;;9.06;87.51;101302.63;5008516;28;20042;-71
2022/06/01 05:35:49;;;;;;;23.08;13.77;;;;;;;9.09;87.76;101296.97;4996449;28;20371;-69
2022/06/01 05:38:14;;;;;;;26.67;14.32;;;;;;;9.15;88.09;101299.34;5006453;28;20022;-72
2022/06/01 05:40:40;;;;;;;21.75;13.40;;;;;;;9.19;87.56;101295.50;5008524;28;20041;-71
2022/06/01 05:43:11;;;;;;;22.13;13.90;;;;;;;9.18;88.00;101288.28;4988376;28;20018;-71
2022/06/01 05:45:38;;;;;;;21.40;13.40;;;;;;;9.28;87.85;101303.09;5002018;28;20046;-71
2022/06/01 05:48:04;;;;;;;22.17;13.18;;;;;;;9.30;87.11;101301.16;5004937;28;20492;-71
2022/06/01 05:50:29;;;;;;;23.33;14.43;;;;;;;9.35;88.24;101300.88;5003729;28;20052;-71
2022/06/01 05:52:55;;;;;;;22.77;12.45;;;;;;;9.40;88.22;101307.78;4986384;28;20076;-71
2022/06/01 05:55:20;;;;;;;19.35;11.85;;;;;;;9.44;88.35;101295.75;4990164;28;20385;-71
2022/06/01 05:57:45;;;;;;;18.42;13.57;;;;;;;9.50;87.84;101299.94;5008273;28;20046;-71
2022/06/01 06:00:12;;;;;;;23.38;12.98;;;;;;;9.57;88.30;101304.03;5003079;28;20034;-72
2022/06/01 06:02:38;;;;;;;20.00;12.45;;;;;;;9.66;88.07;101299.91;5007479;28;20042;-70
2022/06/01 06:06:11;;;;;;;21.63;12.73;;;;;;;9.72;88.14;101299.50;5005886;28;20026;-71
2022/06/01 06:07:49;;;;;;;20.13;12.27;;;;;;;9.84;88.30;101308.72;5003477;28;20489;-70
2022/06/01 06:10:15;;;;;;;23.45;13.55;;;;;;;9.92;88.67;101307.28;5008203;28;20108;-71
2022/06/01 06:12:41;;;;;;;21.52;12.38;;;;;;;10.01;88.23;101311.28;5008573;28;20065;-72
2022/06/01 06:15:07;;;;;;;20.70;12.73;;;;;;;10.10;88.31;101310.72;5004566;28;20033;-72
2022/06/01 06:17:32;;;;;;;18.58;11.90;;;;;;;10.20;88.78;101319.16;5005330;28;20405;-72
2022/06/01 06:19:58;;;;;;;23.13;13.13;;;;;;;10.29;89.18;101317.72;5006590;28;20026;-71
2022/06/01 06:22:25;;;;;;;21.98;12.98;;;;;;;10.35;88.06;101326.41;5007371;28;20092;-71
2022/06/01 06:24:51;;;;;;;21.38;11.57;;;;;;;10.45;87.78;101321.22;5002603;28;20038;-71
2022/06/01 06:27:16;;;;;;;19.08;11.30;;;;;;;10.53;87.01;101323.44;5004749;28;20029;-69
2022/06/01 06:29:42;;;;;;;18.10;11.95;;;;;;;10.61;87.29;101329.25;5004999;28;20034;-72
2022/06/01 06:32:08;;;;;;;19.27;12.75;;;;;;;10.66;86.82;101327.13;5006078;28;20434;-73
2022/06/01 06:34:33;;;;;;;20.52;12.20;;;;;;;10.70;88.15;101329.53;5006405;28;20042;-70
2022/06/01 06:36:58;;;;;;;20.30;12.00;;;;;;;10.75;87.60;101331.97;5004292;28;20120;-72
2022/06/01 06:39:24;;;;;;;17.45;11.88;;;;;;;10.80;87.71;101337.97;5003314;28;20037;-71
2022/06/01 06:41:49;;;;;;;17.52;12.35;;;;;;;10.85;87.74;101335.81;5006919;28;20087;-71
2022/06/01 06:44:14;;;;;;;17.55;11.65;;;;;;;10.92;87.49;101344.47;5004580;28;20034;-71
2022/06/01 06:46:40;;;;;;;19.80;11.98;;;;;;;10.97;86.96;101347.75;5002806;28;20509;-71
2022/06/01 06:49:05;;;;;;;19.77;12.20;;;;;;;10.99;87.62;101341.22;5006890;28;20231;-71
2022/06/01 06:51:31;;;;;;;22.50;12.20;;;;;;;11.08;88.40;101355.22;5004451;28;20042;-71
2022/06/01 06:53:56;;;;;;;16.90;11.52;;;;;;;11.11;87.34;101355.88;5004908;28;20544;-72
2022/06/01 06:56:22;;;;;;;21.58;11.00;;;;;;;11.18;87.26;101364.50;5007787;28;20052;-72
2022/06/01 06:58:49;;;;;;;19.63;11.98;;;;;;;11.24;86.94;101365.00;5000945;28;20056;-70
2022/06/01 07:01:15;;;;;;;21.08;12.30;;;;;;;11.35;88.00;101360.66;5000742;28;20492;-68
2022/06/01 07:03:40;;;;;;;18.95;11.70;;;;;;;11.43;88.16;101367.34;5007074;28;20065;-72
2022/06/01 07:06:17;;;;;;;19.20;11.90;;;;;;;11.53;87.01;101353.97;5007460;28;20090;-70
2022/06/01 07:08:52;;;;;;;18.70;11.00;;;;;;;11.58;86.62;101356.38;4998427;28;20380;-72
2022/06/01 07:11:20;;;;;;;19.38;11.52;;;;;;;11.67;86.21;101359.34;4990008;28;20065;-71
2022/06/01 07:13:47;;;;;;;22.42;12.45;;;;;;;11.80;86.77;101372.09;5003558;28;20120;-70
2022/06/01 07:16:18;;;;;;;21.10;11.18;;;;;;;12.04;86.72;101355.94;4988102;28;20048;-70
2022/06/01 07:18:47;;;;;;;15.07;9.73;;;;;;;12.33;83.91;101362.94;5007328;28;20091;-71
2022/06/01 07:21:16;;;;;;;11.50;8.95;;;;;;;12.61;82.37;101360.94;5007910;28;20389;-71
2022/06/01 07:23:42;;;;;;;19.17;8.90;;;;;;;12.75;80.48;101361.66;4998122;28;20038;-71
2022/06/01 07:26:10;;;;;;;15.07;8.05;;;;;;;12.80;81.96;101365.94;5007444;28;20018;-71
2022/06/01 07:28:36;;;;;;;11.10;8.60;;;;;;;12.87;82.33;101357.19;5003803;28;20049;-69
2022/06/01 07:31:04;;;;;;;10.13;7.72;;;;;;;12.92;80.57;101371.38;4997983;28;20030;-71
2022/06/01 07:33:30;;;;;;;14.23;9.55;;;;;;;12.99;81.27;101366.31;5006603;28;20544;-70
2022/06/01 07:36:00;;;;;;;15.95;10.93;;;;;;;13.00;81.45;101365.31;5007376;28;20040;-71
2022/06/01 07:43:58;;;;;;;15.85;11.32;;;;;;;13.36;81.52;101361.72;5006387;28;20038;-71
2022/06/01 07:46:24;;;;;;;16.42;10.48;;;;;;;13.56;81.58;101370.25;5000654;28;20159;-70
2022/06/01 07:48:49;;;;;;;18.33;10.43;;;;;;;13.72;79.30;101368.97;5006365;28;20042;-70
2022/06/01 07:51:16;;;;;;;14.80;9.82;;;;;;;13.69;76.22;101366.44;5006262;28;20042;-71
2022/06/01 07:53:41;;;;;;;13.50;11.00;;;;;;;13.72;77.65;101370.84;4979920;28;20086;-71
2022/06/01 07:56:06;;;;;;;13.00;9.43;;;;;;;13.88;77.60;101367.75;5006997;28;20033;-71
2022/06/01 07:58:32;;;;;;;12.80;9.57;;;;;;;14.09;77.69;101367.97;4996736;28;20058;-70
2022/06/01 08:00:57;;;;;;;14.60;10.70;;;;;;;14.27;77.91;101363.75;4993875;28;20030;-70
2022/06/01 08:03:23;;;;;;;14.35;10.10;;;;;;;14.53;76.20;101370.78;4998732;28;20069;-71
2022/06/01 08:05:48;;;;;;;17.05;10.52;;;;;;;14.98;75.79;101367.16;4996406;28;20042;-71
2022/06/01 08:08:14;;;;;;;14.27;8.80;;;;;;;15.26;74.46;101369.34;4999366;28;20116;-71
2022/06/01 08:10:40;;;;;;;14.25;8.85;;;;;;;15.36;73.05;101368.56;5004402;28;20042;-71
2022/06/01 08:13:09;;;;;;;13.82;8.40;;;;;;;15.68;71.98;101374.97;5006129;28;20112;-70
2022/06/01 08:16:03;;;;;;;11.00;8.10;;;;;;;16.03;70.33;101360.91;4997928;28;20046;-71
2022/06/01 08:18:28;;;;;;;10.00;7.60;;;;;;;16.50;68.13;101375.06;5005642;28;20496;-71
2022/06/01 08:20:54;;;;;;;12.32;8.57;;;;;;;17.03;70.61;101374.03;4998516;28;20030;-71
2022/06/01 08:23:25;;;;;;;11.73;7.70;;;;;;;17.42;67.56;101371.38;5003191;28;20084;-70
2022/06/01 08:25:51;;;;;;;10.80;7.07;;;;;;;17.66;64.53;101370.94;5005595;28;20446;-70
2022/06/01 08:28:17;;;;;;;11.80;7.78;;;;;;;18.03;65.90;101369.22;5002572;28;20040;-68
2022/06/01 08:30:42;;;;;;;9.77;7.35;;;;;;;18.27;64.29;101370.63;4999282;28;20064;-70
2022/06/01 08:33:09;;;;;;;10.98;7.45;;;;;;;18.38;63.31;101362.22;5004993;28;20072;-71
2022/06/01 08:35:40;;;;;;;8.40;6.45;;;;;;;18.30;61.37;101362.09;4994147;28;20478;-71
2022/06/01 08:38:06;;;;;;;9.30;6.13;;;;;;;18.64;61.12;101351.38;4997899;28;20100;-70
2022/06/01 08:40:50;;;;;;;7.72;6.38;;;;;;;19.42;63.84;101360.13;4988503;28;20024;-71
2022/06/01 08:43:21;;;;;;;7.60;5.53;;;;;;;19.67;59.80;101360.41;4996237;28;20084;-71
2022/06/01 08:45:51;;;;;;;7.03;5.80;;;;;;;19.74;57.84;101354.09;4997760;28;20038;-68
2022/06/01 08:48:22;;;;;;;6.75;6.00;;;;;;;19.66;54.23;101350.41;5004633;28;20501;-70
2022/06/01 08:50:48;;;;;;;6.05;5.47;;;;;;;20.12;57.95;101363.91;5007476;28;20052;-70
2022/06/01 08:53:13;;;;;;;5.80;5.07;;;;;;;20.63;57.27;101351.16;4988791;28;20038;-71
2022/06/01 08:55:50;;;;;;;6.60;5.05;;;;;;;20.49;55.39;101362.84;5009591;28;20057;-70
2022/06/01 08:58:21;;;;;;;5.00;4.50;;;;;;;20.38;54.97;101368.63;5009212;28;20166;-70
2022/06/01 09:01:31;;;;;;;8.70;4.78;;;;;;;20.65;56.14;101367.59;4999009;28;20030;-68
2022/06/01 09:04:11;;;;;;;6.65;4.60;;;;;;;20.86;52.90;101361.66;4977449;28;20125;-70
2022/06/01 09:06:45;;;;;;;6.13;4.55;;;;;;;20.62;51.10;101368.78;4991373;28;20101;-70
2022/06/01 09:09:17;;;;;;;6.03;4.57;;;;;;;20.21;53.01;101366.75;5002838;28;20508;-71
2022/06/01 09:11:45;;;;;;;6.65;4.40;;;;;;;19.97;52.21;101371.06;5009556;28;20509;-69
2022/06/01 09:14:14;;;;;;;7.03;4.53;;;;;;;20.03;52.23;101367.66;5008642;28;20030;-71
2022/06/01 09:16:42;;;;;;;5.22;3.80;;;;;;;19.85;52.22;101366.78;5002027;28;20485;-69
2022/06/01 09:19:14;;;;;;;4.43;3.70;;;;;;;19.65;53.86;101368.84;5008518;28;20504;-71
2022/06/01 09:24:29;;;;;;;4.90;4.07;;;;;;;18.68;53.86;101383.13;4998399;28;20025;-70
2022/06/01 09:27:08;;;;;;;3.40;2.60;;;;;;;17.84;57.74;101383.88;4991419;28;20048;-70
2022/06/01 09:29:43;;;;;;;4.38;3.38;;;;;;;16.56;59.09;101384.66;5005905;28;20547;-70
2022/06/01 09:32:24;;;;;;;4.38;3.95;;;;;;;15.77;62.08;101389.75;5003189;28;20175;-72
2022/06/01 09:34:50;;;;;;;3.35;3.05;;;;;;;15.28;59.17;101388.38;4986243;28;20733;-71
2022/06/01 09:37:24;;;;;;;6.35;2.70;;;;;;;14.71;62.45;101381.25;5006691;28;20038;-71
2022/06/01 09:39:53;;;;;;;3.35;2.70;;;;;;;14.18;64.30;101384.53;5005095;28;20499;-71
2022/06/01 09:42:37;;;;;;;2.72;2.20;;;;;;;14.28;66.58;101384.66;5005959;28;20095;-71
2022/06/01 09:45:22;;;;;;;2.50;2.15;;;;;;;14.41;65.97;101393.66;5004506;28;20042;-71
2022/06/01 09:47:50;;;;;;;4.30;2.38;;;;;;;14.42;67.02;101387.16;5004922;28;20073;-71
2022/06/01 09:50:24;;;;;;;3.65;2.00;;;;;;;14.46;67.38;101393.28;5005383;28;20041;-70
2022/06/01 09:52:55;;;;;;;2.30;2.10;;;;;;;14.46;68.46;101393.28;5000548;28;20476;-70
2022/06/01 09:55:23;;;;;;;3.08;2.05;;;;;;;14.44;67.20;101392.50;5005562;28;20042;-71
2022/06/01 10:06:05;;;;;;;2.85;2.00;;;;;;;14.42;67.70;101405.47;5007803;28;20497;-71
2022/06/01 10:06:50;;;;;;;4.53;3.72;;;;;;;13.13;69.91;101417.19;5009320;28;20512;-71
2022/06/01 10:09:21;;;;;;;10.45;5.80;;;;;;;12.62;71.36;101429.06;5001716;28;20119;-71
2022/06/01 10:11:51;;;;;;;10.35;6.25;;;;;;;12.49;72.34;101447.28;5004155;28;20418;-70
2022/06/01 10:14:16;;;;;;;8.60;6.60;;;;;;;12.58;74.41;101454.81;5000035;28;20037;-69
2022/06/01 10:17:11;;;;;;;11.38;6.35;;;;;;;12.54;73.78;101447.84;4987961;28;20041;-71
2022/06/01 10:20:08;;;;;;;7.57;5.72;;;;;;;12.47;74.56;101469.25;4992469;28;20064;-71
2022/06/01 10:22:42;;;;;;;9.95;5.70;;;;;;;12.50;75.48;101471.75;5000021;28;20045;-69
2022/06/01 10:25:22;;;;;;;7.15;5.00;;;;;;;12.65;75.91;101478.00;4999298;28;20096;-71
2022/06/01 10:27:58;;;;;;;5.53;4.75;;;;;;;12.62;75.66;101480.06;5008930;28;20048;-71
2022/06/01 10:30:27;;;;;;;7.10;4.72;;;;;;;12.50;74.63;101479.09;5005145;28;20127;-71
2022/06/01 10:32:59;;;;;;;8.15;5.35;;;;;;;12.39;76.25;101477.09;5006531;28;20077;-71
2022/06/01 10:35:42;;;;;;;9.70;4.43;;;;;;;12.29;74.68;101456.88;4998596;28;20037;-71
2022/06/01 10:38:17;;;;;;;5.13;4.22;;;;;;;12.31;75.81;101449.50;5004189;28;20040;-73
2022/06/01 10:40:55;;;;;;;5.05;3.63;;;;;;;12.31;76.55;101446.75;5002543;28;20562;-73
2022/06/01 10:43:38;;;;;;;7.25;4.78;;;;;;;12.49;75.89;101448.16;5007983;28;20042;-73
2022/06/01 10:46:43;;;;;;;6.65;3.85;;;;;;;12.74;75.56;101447.31;4991709;28;20030;-72
2022/06/01 10:49:33;;;;;;;4.82;3.83;;;;;;;12.86;74.48;101444.66;5006585;28;20042;-72
2022/06/01 10:52:10;;;;;;;4.25;3.70;;;;;;;12.98;74.42;101431.00;5008288;28;20800;-72
2022/06/01 10:54:41;;;;;;;6.38;4.20;;;;;;;13.23;77.14;101438.28;5001527;28;20613;-71
2022/06/01 10:57:09;;;;;;;4.78;3.97;;;;;;;13.57;77.64;101443.06;5007099;28;20073;-72
2022/06/01 10:59:35;;;;;;;4.80;4.10;;;;;;;13.93;78.81;101433.94;5005605;28;20045;-68
2022/06/01 11:02:09;;;;;;;5.30;4.13;;;;;;;14.60;77.81;101438.75;5003214;28;20037;-72
2022/06/01 11:04:53;;;;;;;3.85;3.42;;;;;;;15.18;73.89;101437.63;5007336;28;20046;-71
2022/06/01 11:07:43;;;;;;;4.18;3.78;;;;;;;15.47;72.74;101437.94;5008397;28;20042;-71
2022/06/01 11:10:14;;;;;;;5.18;4.40;;;;;;;15.63;71.33;101439.41;5000803;28;20034;-71
2022/06/01 11:13:03;;;;;;;6.68;4.00;;;;;;;15.74;71.84;101437.53;5007741;28;20038;-71
2022/06/01 11:15:39;;;;;;;5.72;5.13;;;;;;;15.69;71.66;101442.53;4999511;28;20452;-71
2022/06/01 11:18:38;;;;;;;6.85;4.78;;;;;;;15.63;70.92;101436.66;4996151;28;20547;-70
2022/06/01 11:21:06;;;;;;;5.40;4.90;;;;;;;15.68;70.38;101435.31;5007856;28;20034;-71
2022/06/01 11:23:47;;;;;;;5.97;4.50;;;;;;;15.87;71.11;101431.00;5002260;28;20540;-72
2022/06/01 11:26:35;;;;;;;5.72;5.13;;;;;;;16.01;70.53;101422.44;5008563;28;20041;-72
2022/06/01 11:29:07;;;;;;;5.47;4.97;;;;;;;16.18;70.01;101430.09;5000582;28;20045;-72
2022/06/01 11:31:35;;;;;;;7.32;4.97;;;;;;;16.42;70.34;101442.69;4995960;28;20038;-71
2022/06/01 11:34:22;;;;;;;5.57;4.90;;;;;;;16.44;68.49;101447.03;5007127;28;20060;-71
2022/06/01 11:37:12;;;;;;;5.32;4.05;;;;;;;16.58;69.03;101443.06;5004723;28;20065;-71
2022/06/01 11:39:57;;;;;;;4.95;4.07;;;;;;;16.90;70.54;101448.50;5000159;28;20104;-71
2022/06/01 11:42:34;;;;;;;5.45;4.00;;;;;;;17.16;67.95;101448.00;5006937;28;20037;-71
2022/06/01 11:45:27;;;;;;;5.43;3.78;;;;;;;17.42;67.21;101448.38;4992520;28;20042;-71
2022/06/01 11:47:59;;;;;;;3.22;2.90;;;;;;;17.62;66.38;101450.16;5006375;28;20149;-71
2022/06/01 11:50:43;;;;;;;;;;;;;;;17.74;67.31;101451.81;5007046;28;20520;-71
2022/06/01 11:53:17;;;;;;;3.95;3.30;;;;;;;18.06;66.59;101446.03;5004741;28;19918;-71